LGHI/JKH METAR and TAF weather

Enter ICAO airport designator
Station Type Date Time Source
LGHI METAR 2019/12/07 17:50 UTC NOAA

LGHI 071750Z 21001KT 9999 FEW020 SCT030 13/11 Q1017


Station Type Date Time Source
LGHI Decoded METAR 2019/12/07 17:50 UTC NOAA

Chios Airport , Greece (LGHI) 38-20N 026-08E 4M
Dec 07, 2019 - 12:50 PM EST / 2019.12.07 1750 UTC
Wind: from the SSW (210 degrees) at 1 MPH (1 KT):0
Visibility: greater than 7 mile(s):0
Sky conditions: partly cloudy
Temperature: 55 F (13 C)
Dew Point: 51 F (11 C)
Relative Humidity: 87%
Pressure (altimeter): 30.03 in. Hg (1017 hPa)
ob: LGHI 071750Z 21001KT 9999 FEW020 SCT030 13/11 Q1017
cycle: 18

Station Type Date Time Source
LGHI TAF 2012/09/21 03:06 UTC NOAA

TAF TAF LGHI 210200Z 2103/2115 VRB05KT 9999 SCT020 PROB30
TEMPO 2103/2106 7000 RA SCT018 BKN030
BECMG 2103/2105 30018KT

Example: see airport list